sensor_id;sensor_type;location;lat;lon;timestamp;pressure;altitude;pressure_sealevel;temperature;humidity
48404;BME280;34202;52.536;6.042;2022-09-16T00:02:50;101035.67;;;13.01;84.68
48404;BME280;34202;52.536;6.042;2022-09-16T00:07:51;101037.77;;;13.00;84.70
48404;BME280;34202;52.536;6.042;2022-09-16T00:12:51;101041.96;;;13.00;84.76
48404;BME280;34202;52.536;6.042;2022-09-16T00:17:51;101039.34;;;13.01;84.80
48404;BME280;34202;52.536;6.042;2022-09-16T00:22:52;101040.56;;;13.03;84.85
48404;BME280;34202;52.536;6.042;2022-09-16T00:27:53;101042.83;;;13.04;84.99
48404;BME280;34202;52.536;6.042;2022-09-16T00:32:53;101052.45;;;13.05;85.31
48404;BME280;34202;52.536;6.042;2022-09-16T00:37:53;101054.90;;;13.05;85.37
48404;BME280;34202;52.536;6.042;2022-09-16T00:42:54;101055.77;;;13.07;85.42
48404;BME280;34202;52.536;6.042;2022-09-16T00:48:05;101060.66;;;13.07;85.57
48404;BME280;34202;52.536;6.042;2022-09-16T00:53:08;101053.67;;;13.07;85.57
48404;BME280;34202;52.536;6.042;2022-09-16T00:58:23;101050.34;;;13.07;85.51
48404;BME280;34202;52.536;6.042;2022-09-16T01:03:26;101051.05;;;13.09;85.55
48404;BME280;34202;52.536;6.042;2022-09-16T01:08:28;101044.06;;;13.10;85.62
48404;BME280;34202;52.536;6.042;2022-09-16T01:13:28;101042.66;;;13.09;85.82
48404;BME280;34202;52.536;6.042;2022-09-16T01:29:19;101039.17;;;13.06;86.03
48404;BME280;34202;52.536;6.042;2022-09-16T01:44:55;101032.70;;;13.03;85.98
48404;BME280;34202;52.536;6.042;2022-09-16T01:55:04;101037.23;;;12.97;86.43
48404;BME280;34202;52.536;6.042;2022-09-16T02:00:08;101030.79;;;12.92;86.50
48404;BME280;34202;52.536;6.042;2022-09-16T02:05:36;101027.27;;;12.89;86.41
48404;BME280;34202;52.536;6.042;2022-09-16T02:10:45;101032.89;;;12.86;86.22
48404;BME280;34202;52.536;6.042;2022-09-16T02:15:50;101028.50;;;12.85;86.05
48404;BME280;34202;52.536;6.042;2022-09-16T02:20:53;101024.66;;;12.83;86.01
48404;BME280;34202;52.536;6.042;2022-09-16T02:25:56;101023.95;;;12.82;86.00
48404;BME280;34202;52.536;6.042;2022-09-16T02:31:01;101026.23;;;12.79;85.95
48404;BME280;34202;52.536;6.042;2022-09-16T02:36:04;101023.09;;;12.75;85.97
48404;BME280;34202;52.536;6.042;2022-09-16T02:41:06;101037.76;;;12.72;86.28
48404;BME280;34202;52.536;6.042;2022-09-16T02:46:16;101053.98;;;12.67;86.35
48404;BME280;34202;52.536;6.042;2022-09-16T02:56:53;101043.67;;;12.55;86.55
48404;BME280;34202;52.536;6.042;2022-09-16T03:01:55;101035.45;;;12.55;86.70
48404;BME280;34202;52.536;6.042;2022-09-16T03:06:55;101031.10;;;12.56;86.94
48404;BME280;34202;52.536;6.042;2022-09-16T03:12:43;101027.08;;;12.58;86.94
48404;BME280;34202;52.536;6.042;2022-09-16T03:18:00;101021.86;;;12.60;86.99
48404;BME280;34202;52.536;6.042;2022-09-16T03:23:17;101016.78;;;12.62;86.91
48404;BME280;34202;52.536;6.042;2022-09-16T03:28:25;101011.90;;;12.63;87.12
48404;BME280;34202;52.536;6.042;2022-09-16T03:33:35;101020.10;;;12.64;87.17
48404;BME280;34202;52.536;6.042;2022-09-16T03:38:39;101035.48;;;12.65;87.20
48404;BME280;34202;52.536;6.042;2022-09-16T03:43:54;101034.08;;;12.64;87.40
48404;BME280;34202;52.536;6.042;2022-09-16T03:48:55;101031.46;;;12.56;87.44
48404;BME280;34202;52.536;6.042;2022-09-16T03:53:56;101038.77;;;12.54;87.71
48404;BME280;34202;52.536;6.042;2022-09-16T03:58:56;101025.34;;;12.54;87.85
48404;BME280;34202;52.536;6.042;2022-09-16T04:03:57;101027.27;;;12.55;87.98
48404;BME280;34202;52.536;6.042;2022-09-16T04:08:57;101044.71;;;12.56;88.15
48404;BME280;34202;52.536;6.042;2022-09-16T04:14:00;101034.41;;;12.56;88.27
48404;BME280;34202;52.536;6.042;2022-09-16T04:19:00;101028.13;;;12.54;88.16
48404;BME280;34202;52.536;6.042;2022-09-16T04:24:01;101026.20;;;12.52;88.13
48404;BME280;34202;52.536;6.042;2022-09-16T04:29:01;101021.14;;;12.51;88.06
48404;BME280;34202;52.536;6.042;2022-09-16T04:34:02;101033.88;;;12.50;88.08
48404;BME280;34202;52.536;6.042;2022-09-16T04:39:03;101039.82;;;12.48;88.00
48404;BME280;34202;52.536;6.042;2022-09-16T04:44:04;101028.29;;;12.44;88.00
48404;BME280;34202;52.536;6.042;2022-09-16T04:49:04;101015.53;;;12.38;87.64
48404;BME280;34202;52.536;6.042;2022-09-16T04:54:05;101015.36;;;12.35;87.42
48404;BME280;34202;52.536;6.042;2022-09-16T04:59:06;101017.80;;;12.36;87.44
48404;BME280;34202;52.536;6.042;2022-09-16T05:04:07;101022.69;;;12.34;87.30
48404;BME280;34202;52.536;6.042;2022-09-16T05:09:10;101033.48;;;12.33;87.13
48404;BME280;34202;52.536;6.042;2022-09-16T05:14:15;101048.49;;;12.29;87.04
48404;BME280;34202;52.536;6.042;2022-09-16T05:19:16;101039.73;;;12.21;86.76
48404;BME280;34202;52.536;6.042;2022-09-16T05:24:16;101029.94;;;12.13;86.97
48404;BME280;34202;52.536;6.042;2022-09-16T05:29:17;101026.95;;;12.05;86.77
48404;BME280;34202;52.536;6.042;2022-09-16T05:34:19;101028.35;;;12.04;87.15
48404;BME280;34202;52.536;6.042;2022-09-16T05:39:21;101027.84;;;12.08;87.39
48404;BME280;34202;52.536;6.042;2022-09-16T05:44:22;101033.09;;;12.12;87.45
48404;BME280;34202;52.536;6.042;2022-09-16T05:49:23;101035.54;;;12.15;87.50
48404;BME280;34202;52.536;6.042;2022-09-16T05:54:23;101035.20;;;12.17;87.48
48404;BME280;34202;52.536;6.042;2022-09-16T05:59:24;101027.86;;;12.15;87.28
48404;BME280;34202;52.536;6.042;2022-09-16T06:04:24;101030.46;;;12.14;87.26
48404;BME280;34202;52.536;6.042;2022-09-16T06:09:24;101033.44;;;12.13;87.23
48404;BME280;34202;52.536;6.042;2022-09-16T06:14:25;101033.08;;;12.11;87.33
48404;BME280;34202;52.536;6.042;2022-09-16T06:19:25;101029.06;;;12.09;87.46
48404;BME280;34202;52.536;6.042;2022-09-16T06:24:26;101029.23;;;12.08;87.51
48404;BME280;34202;52.536;6.042;2022-09-16T06:29:26;101032.02;;;12.06;87.69
48404;BME280;34202;52.536;6.042;2022-09-16T06:34:26;101032.20;;;12.06;87.87
48404;BME280;34202;52.536;6.042;2022-09-16T06:39:26;101033.41;;;12.05;88.13
48404;BME280;34202;52.536;6.042;2022-09-16T06:44:27;101034.80;;;12.05;88.33
48404;BME280;34202;52.536;6.042;2022-09-16T06:49:27;101030.27;;;12.06;88.69
48404;BME280;34202;52.536;6.042;2022-09-16T06:54:27;101034.46;;;12.09;89.18
48404;BME280;34202;52.536;6.042;2022-09-16T06:59:28;101035.70;;;12.12;89.33
48404;BME280;34202;52.536;6.042;2022-09-16T07:04:29;101032.92;;;12.17;89.42
48404;BME280;34202;52.536;6.042;2022-09-16T07:09:30;101031.54;;;12.20;89.51
48404;BME280;34202;52.536;6.042;2022-09-16T07:14:31;101037.66;;;12.23;89.63
48404;BME280;34202;52.536;6.042;2022-09-16T07:19:32;101031.39;;;12.29;89.98
48404;BME280;34202;52.536;6.042;2022-09-16T07:24:32;101034.73;;;12.37;90.44
48404;BME280;34202;52.536;6.042;2022-09-16T07:29:32;101036.67;;;12.47;90.86
48404;BME280;34202;52.536;6.042;2022-09-16T07:34:32;101040.00;;;12.57;90.91
48404;BME280;34202;52.536;6.042;2022-09-16T07:39:33;101046.31;;;12.69;91.32
48404;BME280;34202;52.536;6.042;2022-09-16T07:44:33;101041.61;;;12.82;91.21
48404;BME280;34202;52.536;6.042;2022-09-16T07:49:33;101045.27;;;12.91;90.83
48404;BME280;34202;52.536;6.042;2022-09-16T07:54:34;101048.77;;;12.99;90.50
48404;BME280;34202;52.536;6.042;2022-09-16T07:59:34;101052.98;;;13.11;90.81
48404;BME280;34202;52.536;6.042;2022-09-16T08:04:34;101051.39;;;13.24;90.69
48404;BME280;34202;52.536;6.042;2022-09-16T08:09:35;101050.36;;;13.32;90.15
48404;BME280;34202;52.536;6.042;2022-09-16T08:14:37;101044.05;;;13.42;90.44
48404;BME280;34202;52.536;6.042;2022-09-16T08:19:37;101046.30;;;13.55;90.58
48404;BME280;34202;52.536;6.042;2022-09-16T08:24:38;101043.99;;;13.68;90.67
48404;BME280;34202;52.536;6.042;2022-09-16T08:29:38;101045.88;;;13.84;90.79
48404;BME280;34202;52.536;6.042;2022-09-16T08:34:39;101046.49;;;14.04;91.35
48404;BME280;34202;52.536;6.042;2022-09-16T08:39:39;101047.64;;;14.21;90.42
48404;BME280;34202;52.536;6.042;2022-09-16T08:50:05;101056.27;;;14.44;88.81
48404;BME280;34202;52.536;6.042;2022-09-16T08:55:19;101056.73;;;14.54;88.44
48404;BME280;34202;52.536;6.042;2022-09-16T09:00:22;101059.85;;;14.65;87.91
48404;BME280;34202;52.536;6.042;2022-09-16T09:10:50;101064.25;;;14.88;87.53
48404;BME280;34202;52.536;6.042;2022-09-16T09:15:59;101061.49;;;15.04;87.48
48404;BME280;34202;52.536;6.042;2022-09-16T09:21:15;101062.08;;;15.18;86.75
48404;BME280;34202;52.536;6.042;2022-09-16T09:42:16;101071.36;;;15.39;81.69
48404;BME280;34202;52.536;6.042;2022-09-16T09:47:44;101074.04;;;15.33;81.27
48404;BME280;34202;52.536;6.042;2022-09-16T09:58:27;101093.47;;;15.16;80.75
48404;BME280;34202;52.536;6.042;2022-09-16T10:03:30;101089.91;;;15.23;81.57
48404;BME280;34202;52.536;6.042;2022-09-16T10:08:49;101087.40;;;15.30;81.16
48404;BME280;34202;52.536;6.042;2022-09-16T10:13:55;101082.09;;;15.34;80.52
48404;BME280;34202;52.536;6.042;2022-09-16T10:19:03;101081.60;;;15.31;79.87
48404;BME280;34202;52.536;6.042;2022-09-16T10:24:04;101083.89;;;15.30;79.43
48404;BME280;34202;52.536;6.042;2022-09-16T10:29:15;101082.15;;;15.27;79.14
48404;BME280;34202;52.536;6.042;2022-09-16T10:34:31;101077.19;;;15.34;79.73
48404;BME280;34202;52.536;6.042;2022-09-16T10:39:33;101076.16;;;15.50;80.47
48404;BME280;34202;52.536;6.042;2022-09-16T10:44:35;101076.48;;;15.71;80.82
48404;BME280;34202;52.536;6.042;2022-09-16T10:49:50;101060.13;;;15.90;80.69
48404;BME280;34202;52.536;6.042;2022-09-16T10:54:53;101058.59;;;16.17;80.20
48404;BME280;34202;52.536;6.042;2022-09-16T10:59:58;101066.44;;;16.34;77.71
48404;BME280;34202;52.536;6.042;2022-09-16T11:05:07;101061.35;;;16.45;75.41
48404;BME280;34202;52.536;6.042;2022-09-16T11:15:37;101063.00;;;16.77;72.88
48404;BME280;34202;52.536;6.042;2022-09-16T11:20:59;101057.87;;;16.93;74.16
48404;BME280;34202;52.536;6.042;2022-09-16T11:42:41;101069.75;;;17.59;67.77
48404;BME280;34202;52.536;6.042;2022-09-16T11:47:52;101068.23;;;17.54;66.36
48404;BME280;34202;52.536;6.042;2022-09-16T12:03:47;101067.52;;;17.85;64.46
48404;BME280;34202;52.536;6.042;2022-09-16T12:08:56;101058.80;;;17.78;64.27
48404;BME280;34202;52.536;6.042;2022-09-16T12:19:14;101057.86;;;17.92;61.84
48404;BME280;34202;52.536;6.042;2022-09-16T12:29:55;101056.15;;;18.15;61.48
48404;BME280;34202;52.536;6.042;2022-09-16T12:35:11;101051.09;;;18.29;61.30
48404;BME280;34202;52.536;6.042;2022-09-16T12:40:17;101057.23;;;18.39;60.71
48404;BME280;34202;52.536;6.042;2022-09-16T12:45:36;101061.33;;;18.29;59.61
48404;BME280;34202;52.536;6.042;2022-09-16T13:06:43;101065.70;;;18.05;57.31
48404;BME280;34202;52.536;6.042;2022-09-16T13:11:55;101058.98;;;17.97;57.36
48404;BME280;34202;52.536;6.042;2022-09-16T13:16:59;101063.27;;;17.95;57.30
48404;BME280;34202;52.536;6.042;2022-09-16T13:27:31;101053.91;;;17.88;57.79
48404;BME280;34202;52.536;6.042;2022-09-16T13:32:43;101063.05;;;17.97;58.08
48404;BME280;34202;52.536;6.042;2022-09-16T13:37:45;101065.94;;;18.03;57.21
48404;BME280;34202;52.536;6.042;2022-09-16T13:42:46;101064.64;;;18.05;57.47
48404;BME280;34202;52.536;6.042;2022-09-16T13:47:48;101060.09;;;18.04;57.02
48404;BME280;34202;52.536;6.042;2022-09-16T13:52:48;101049.94;;;18.02;57.05
48404;BME280;34202;52.536;6.042;2022-09-16T13:58:09;101047.65;;;18.01;57.47
48404;BME280;34202;52.536;6.042;2022-09-16T14:13:54;101044.31;;;17.64;57.34
48404;BME280;34202;52.536;6.042;2022-09-16T14:19:26;101046.23;;;17.56;56.54
48404;BME280;34202;52.536;6.042;2022-09-16T14:24:36;101045.06;;;17.52;55.64
48404;BME280;34202;52.536;6.042;2022-09-16T14:29:37;101041.75;;;17.51;55.54
48404;BME280;34202;52.536;6.042;2022-09-16T14:34:37;101044.00;;;17.52;55.99
48404;BME280;34202;52.536;6.042;2022-09-16T14:39:40;101051.16;;;17.55;56.16
48404;BME280;34202;52.536;6.042;2022-09-16T14:44:50;101049.69;;;17.49;56.35
48404;BME280;34202;52.536;6.042;2022-09-16T14:49:56;101033.69;;;17.48;56.59
48404;BME280;34202;52.536;6.042;2022-09-16T14:54:57;101037.52;;;17.42;56.35
48404;BME280;34202;52.536;6.042;2022-09-16T15:00:02;101039.47;;;17.41;56.59
48404;BME280;34202;52.536;6.042;2022-09-16T15:10:21;101034.39;;;17.29;55.24
48404;BME280;34202;52.536;6.042;2022-09-16T15:15:28;101037.48;;;17.24;55.36
48404;BME280;34202;52.536;6.042;2022-09-16T15:20:35;101039.60;;;17.24;54.99
48404;BME280;34202;52.536;6.042;2022-09-16T15:25:36;101039.83;;;17.21;54.14
48404;BME280;34202;52.536;6.042;2022-09-16T15:30:45;101043.13;;;17.23;54.93
48404;BME280;34202;52.536;6.042;2022-09-16T15:35:48;101044.08;;;17.28;55.14
48404;BME280;34202;52.536;6.042;2022-09-16T15:46:04;101047.58;;;17.29;55.09
48404;BME280;34202;52.536;6.042;2022-09-16T15:51:32;101044.67;;;17.25;54.87
48404;BME280;34202;52.536;6.042;2022-09-16T16:01:52;101059.18;;;17.10;54.46
48404;BME280;34202;52.536;6.042;2022-09-16T16:06:55;101059.70;;;16.98;54.09
48404;BME280;34202;52.536;6.042;2022-09-16T16:12:07;101058.98;;;16.90;54.06
48404;BME280;34202;52.536;6.042;2022-09-16T16:17:10;101055.36;;;16.85;54.34
48404;BME280;34202;52.536;6.042;2022-09-16T16:22:12;101077.59;;;16.78;55.01
48404;BME280;34202;52.536;6.042;2022-09-16T16:27:13;101096.89;;;16.42;57.30
48404;BME280;34202;52.536;6.042;2022-09-16T16:32:14;101113.06;;;15.98;59.89
48404;BME280;34202;52.536;6.042;2022-09-16T16:37:17;101108.35;;;15.40;62.73
48404;BME280;34202;52.536;6.042;2022-09-16T16:42:19;101095.45;;;14.87;64.85
48404;BME280;34202;52.536;6.042;2022-09-16T16:47:20;101088.61;;;14.54;66.67
48404;BME280;34202;52.536;6.042;2022-09-16T16:52:20;101088.36;;;14.33;67.68
48404;BME280;34202;52.536;6.042;2022-09-16T16:57:20;101087.15;;;14.31;68.74
48404;BME280;34202;52.536;6.042;2022-09-16T17:02:21;101089.63;;;14.28;69.35
48404;BME280;34202;52.536;6.042;2022-09-16T17:07:21;101101.76;;;14.15;69.92
48404;BME280;34202;52.536;6.042;2022-09-16T17:12:21;101106.14;;;14.13;70.71
48404;BME280;34202;52.536;6.042;2022-09-16T17:17:22;101113.50;;;14.09;71.27
48404;BME280;34202;52.536;6.042;2022-09-16T17:22:22;101114.23;;;13.99;72.01
48404;BME280;34202;52.536;6.042;2022-09-16T17:27:23;101109.90;;;13.84;72.59
48404;BME280;34202;52.536;6.042;2022-09-16T17:32:26;101107.48;;;13.62;73.15
48404;BME280;34202;52.536;6.042;2022-09-16T17:37:26;101104.38;;;13.51;73.63
48404;BME280;34202;52.536;6.042;2022-09-16T17:42:26;101100.00;;;13.46;74.18
48404;BME280;34202;52.536;6.042;2022-09-16T17:47:27;101094.92;;;13.43;74.63
48404;BME280;34202;52.536;6.042;2022-09-16T17:52:28;101105.42;;;13.39;75.05
48404;BME280;34202;52.536;6.042;2022-09-16T17:57:30;101113.45;;;13.31;75.15
48404;BME280;34202;52.536;6.042;2022-09-16T18:02:34;101121.14;;;13.30;75.38
48404;BME280;34202;52.536;6.042;2022-09-16T18:07:35;101121.30;;;13.29;75.80
48404;BME280;34202;52.536;6.042;2022-09-16T18:12:35;101128.98;;;13.26;76.07
48404;BME280;34202;52.536;6.042;2022-09-16T18:17:35;101134.74;;;13.19;76.61
48404;BME280;34202;52.536;6.042;2022-09-16T18:22:36;101136.66;;;13.10;77.23
48404;BME280;34202;52.536;6.042;2022-09-16T18:27:37;101147.49;;;13.02;77.88
48404;BME280;34202;52.536;6.042;2022-09-16T18:32:37;101148.17;;;12.93;78.61
48404;BME280;34202;52.536;6.042;2022-09-16T18:37:37;101151.83;;;12.88;79.20
48404;BME280;34202;52.536;6.042;2022-09-16T18:42:38;101149.72;;;12.85;79.61
48404;BME280;34202;52.536;6.042;2022-09-16T18:47:38;101151.64;;;12.80;79.62
48404;BME280;34202;52.536;6.042;2022-09-16T18:53:13;101164.37;;;12.73;79.42
48404;BME280;34202;52.536;6.042;2022-09-16T18:58:13;101165.55;;;12.59;79.64
48404;BME280;34202;52.536;6.042;2022-09-16T19:03:14;101173.90;;;12.50;80.06
48404;BME280;34202;52.536;6.042;2022-09-16T19:08:14;101179.99;;;12.49;80.73
48404;BME280;34202;52.536;6.042;2022-09-16T19:13:15;101176.50;;;12.50;80.90
48404;BME280;34202;52.536;6.042;2022-09-16T19:18:15;101181.92;;;12.51;81.23
48404;BME280;34202;52.536;6.042;2022-09-16T19:23:16;101189.95;;;12.51;81.47
48404;BME280;34202;52.536;6.042;2022-09-16T19:28:17;101195.02;;;12.50;81.67
48404;BME280;34202;52.536;6.042;2022-09-16T19:33:17;101194.30;;;12.48;82.01
48404;BME280;34202;52.536;6.042;2022-09-16T19:38:17;101199.00;;;12.44;82.12
48404;BME280;34202;52.536;6.042;2022-09-16T19:43:22;101202.11;;;12.39;82.37
48404;BME280;34202;52.536;6.042;2022-09-16T19:48:22;101203.32;;;12.35;82.66
48404;BME280;34202;52.536;6.042;2022-09-16T19:53:23;101200.52;;;12.36;82.85
48404;BME280;34202;52.536;6.042;2022-09-16T19:58:25;101193.91;;;12.38;83.03
48404;BME280;34202;52.536;6.042;2022-09-16T20:03:30;101195.98;;;12.37;82.93
48404;BME280;34202;52.536;6.042;2022-09-16T20:08:32;101195.30;;;12.39;83.00
48404;BME280;34202;52.536;6.042;2022-09-16T20:13:33;101202.48;;;12.42;83.12
48404;BME280;34202;52.536;6.042;2022-09-16T20:18:35;101202.11;;;12.41;83.20
48404;BME280;34202;52.536;6.042;2022-09-16T20:23:36;101203.68;;;12.38;83.59
48404;BME280;34202;52.536;6.042;2022-09-16T20:28:39;101211.18;;;12.37;84.16
48404;BME280;34202;52.536;6.042;2022-09-16T20:33:41;101207.33;;;12.35;84.62
48404;BME280;34202;52.536;6.042;2022-09-16T20:38:41;101216.23;;;12.34;84.72
48404;BME280;34202;52.536;6.042;2022-09-16T20:43:42;101217.98;;;12.35;84.90
48404;BME280;34202;52.536;6.042;2022-09-16T20:48:44;101220.08;;;12.35;84.91
48404;BME280;34202;52.536;6.042;2022-09-16T20:53:50;101222.19;;;12.35;84.94
48404;BME280;34202;52.536;6.042;2022-09-16T20:58:51;101231.41;;;12.34;85.11
48404;BME280;34202;52.536;6.042;2022-09-16T21:03:54;101221.45;;;12.32;85.21
48404;BME280;34202;52.536;6.042;2022-09-16T21:08:56;101216.04;;;12.29;85.26
48404;BME280;34202;52.536;6.042;2022-09-16T21:14:04;101217.59;;;12.29;85.28
48404;BME280;34202;52.536;6.042;2022-09-16T21:19:06;101222.82;;;12.28;85.20
48404;BME280;34202;52.536;6.042;2022-09-16T21:24:08;101224.56;;;12.27;85.15
48404;BME280;34202;52.536;6.042;2022-09-16T21:29:14;101229.45;;;12.26;84.97
48404;BME280;34202;52.536;6.042;2022-09-16T21:34:18;101238.17;;;12.25;85.00
48404;BME280;34202;52.536;6.042;2022-09-16T21:39:19;101242.17;;;12.23;84.87
48404;BME280;34202;52.536;6.042;2022-09-16T21:44:20;101244.23;;;12.20;84.85
48404;BME280;34202;52.536;6.042;2022-09-16T21:49:20;101242.80;;;12.13;84.80
48404;BME280;34202;52.536;6.042;2022-09-16T21:54:25;101247.81;;;12.06;84.81
48404;BME280;34202;52.536;6.042;2022-09-16T21:59:27;101247.97;;;12.03;85.05
48404;BME280;34202;52.536;6.042;2022-09-16T22:04:27;101248.81;;;12.01;85.25
48404;BME280;34202;52.536;6.042;2022-09-16T22:09:27;101244.63;;;12.00;85.30
48404;BME280;34202;52.536;6.042;2022-09-16T22:14:28;101250.91;;;12.00;85.31
48404;BME280;34202;52.536;6.042;2022-09-16T22:19:28;101249.14;;;11.98;85.19
48404;BME280;34202;52.536;6.042;2022-09-16T22:24:29;101247.92;;;11.97;85.07
48404;BME280;34202;52.536;6.042;2022-09-16T22:29:29;101246.33;;;11.94;84.88
48404;BME280;34202;52.536;6.042;2022-09-16T22:34:33;101243.34;;;11.91;84.78
48404;BME280;34202;52.536;6.042;2022-09-16T22:39:33;101244.66;;;11.86;84.76
48404;BME280;34202;52.536;6.042;2022-09-16T22:44:33;101247.25;;;11.83;84.64
48404;BME280;34202;52.536;6.042;2022-09-16T22:49:34;101247.05;;;11.79;84.51
48404;BME280;34202;52.536;6.042;2022-09-16T22:54:34;101245.27;;;11.75;84.45
48404;BME280;34202;52.536;6.042;2022-09-16T22:59:34;101244.02;;;11.71;84.33
48404;BME280;34202;52.536;6.042;2022-09-16T23:04:35;101245.55;;;11.66;84.26
48404;BME280;34202;52.536;6.042;2022-09-16T23:09:36;101246.00;;;11.59;84.31
48404;BME280;34202;52.536;6.042;2022-09-16T23:14:36;101249.77;;;11.52;84.53
48404;BME280;34202;52.536;6.042;2022-09-16T23:19:36;101257.39;;;11.46;84.66
48404;BME280;34202;52.536;6.042;2022-09-16T23:24:37;101257.17;;;11.41;84.72
48404;BME280;34202;52.536;6.042;2022-09-16T23:29:37;101259.06;;;11.38;84.79
48404;BME280;34202;52.536;6.042;2022-09-16T23:34:37;101268.98;;;11.37;85.10
48404;BME280;34202;52.536;6.042;2022-09-16T23:39:38;101266.55;;;11.38;85.33
48404;BME280;34202;52.536;6.042;2022-09-16T23:44:38;101258.54;;;11.39;85.54
48404;BME280;34202;52.536;6.042;2022-09-16T23:49:38;101255.42;;;11.41;85.51
48404;BME280;34202;52.536;6.042;2022-09-16T23:54:39;101259.09;;;11.41;85.48
48404;BME280;34202;52.536;6.042;2022-09-16T23:59:39;101264.11;;;11.39;85.26
